Ana Sayfa
METAR-TAF:

METAR-TAF

Havaalanları :

Odessa-Schlemeyer Field

Odessa, Teksas, Amerika Birleşik Devletleri

Enlem: 31-55-17N, Boylam: 102-23-30W, yükseklik: 914 m

Güncel hava durumu gözlemi

Rapor saat 10:53 UTC de 1 saat ve 6 dakika önce yapıldı.
Rüzgar doğudan 11 kt
Sıcaklık 26°C
Nem 54%
Basınç 1012 hPa
Görüş mesafesi: 16.1 km
Açık gökyüzü

METAR: KODO 161053Z AUTO 10011KT 10SM CLR 26/16 A2989 RMK AO2 SLP065 T02560161 $

Saat: 06:59 (11:59 UTC)


TAF: eksik

4.000'den fazla havaalanı için hava durumu gözlemleri ve tahminleri (METAR ve TAF raporları).

Kullanılabilir istasyonlar harita üzerinde sarı ve kırmızı noktalarla gösterilir.

İstasyonun adını görmek için fareyi noktanın üzerinde gezdirin.

Sonrasında hava gözlem ve tahminlerini görmek için tıklayın.

Haritayı değiştirmek için: yaklaştırmak için siyah artı işaretli yeşil düğmeye ve uzaklaştırmak için de eksi işaretli düğmeye hızla tıklayın; bitişik haritalar için yeşil okları kullanın.


METAR-TAF: